Snow/Ice From: 23-10-2018 22:46 Until: 24-10-2018 08:00 warning for: Snow/Ice Level: Yellow info button
suomi:
Liikennesää: Ajokeli on huono tienpintojen jäätymisen vuoksi.

svenska:
Trafikvädret: Väglaget är dåligt p.g.a. tillfrysning av vägytor.

english:
Traffic weather warning: Bad road conditions are expected because of ice-covered roads. 


Thunder radar more information blitzortung!


Löydät sääaseman tiedot myös:

European Weather Network

Finland Weather Exchange

Weather Underground

AWEKAS



Weather Underground säähistoriasivu

Päivittäin yhteenveto Tammikuu 26, 2017 Yksiköt:  Molemmat    Englantilaiset   Metriset
« Edellinen Päivä
Seuraava Päivä »
Päivittäin Viikoittain Kuukausittain Vuosittain Mukautettu
  Korkea: Matala: Keskiarvo:
Lämpötila: TemperatureF °F /  -17.8 °C 35.8 °F /  2.1 °C 38.3 °F /  3.5 °C
Kastepiste: DewpointF °F /  -17.8 °C 34.7 °F /  1.5 °C 36.2 °F /  2.3 °C
Kosteus: Humidity % 84 % 91 %
Tuulen nopeus: WindSpeedMPH mph /  0 km/h - 0 mph /  0 km/h
Tuulenpuuska: WindSpeedGustMPH mph /  0 km/h - -
Tuuli:- - North
Ilmanpaine: PressureIn in /  0 hPa 29.86 in /  1011.1 hPa -
Sade: 0.00 in /  0 mm    
Historical Graphs
 
 
Taulukkotiedot Tammikuu 26, 2017
Aika Lämpötila Kastepiste Ilmanpaine Tuuli Tuulen nopeus Tuulenpuuska Kosteus Sademäärä (tunneittain)
TemperatureF °F /  -17.8 °C DewpointF °F /  -17.8 °C PressureIn in /  0 hPa Calm     Humidity % HourlyPrecipIn in /  0 mm
00:00 35.8 °F /  2.1 °C 34.7 °F /  1.5 °C 29.92 in /  1013.1 hPa Calm     96 % 0.00 in /  0 mm
00:15 35.8 °F /  2.1 °C 34.7 °F /  1.5 °C 29.92 in /  1013.1 hPa Calm     96 % 0.00 in /  0 mm
00:30 36.0 °F /  2.2 °C 35.1 °F /  1.7 °C 29.92 in /  1013.1 hPa Calm     97 % 0.00 in /  0 mm
00:45 36.1 °F /  2.3 °C 35.4 °F /  1.9 °C 29.91 in /  1012.8 hPa Calm     97 % 0.00 in /  0 mm
01:00 36.1 °F /  2.3 °C 35.4 °F /  1.9 °C 29.91 in /  1012.8 hPa Calm     97 % 0.00 in /  0 mm
01:15 36.3 °F /  2.4 °C 35.6 °F /  2 °C 29.91 in /  1012.8 hPa Calm     97 % 0.00 in /  0 mm
01:30 36.3 °F /  2.4 °C 35.6 °F /  2 °C 29.92 in /  1013.1 hPa Calm     97 % 0.00 in /  0 mm
01:45 36.3 °F /  2.4 °C 35.6 °F /  2 °C 29.91 in /  1012.8 hPa Calm     97 % 0.00 in /  0 mm
02:00 36.3 °F /  2.4 °C 35.6 °F /  2 °C 29.91 in /  1012.8 hPa Calm     97 % 0.00 in /  0 mm
02:15 36.5 °F /  2.5 °C 35.8 °F /  2.1 °C 29.90 in /  1012.4 hPa Calm     97 % 0.00 in /  0 mm
02:30 36.5 °F /  2.5 °C 35.8 °F /  2.1 °C 29.90 in /  1012.4 hPa Calm     97 % 0.00 in /  0 mm
02:45 36.5 °F /  2.5 °C 35.8 °F /  2.1 °C 29.90 in /  1012.4 hPa Calm     97 % 0.00 in /  0 mm
03:00 36.3 °F /  2.4 °C 35.6 °F /  2 °C 29.90 in /  1012.4 hPa Calm     97 % 0.00 in /  0 mm
03:15 36.3 °F /  2.4 °C 35.6 °F /  2 °C 29.90 in /  1012.4 hPa Calm     97 % 0.00 in /  0 mm
03:30 36.3 °F /  2.4 °C 35.6 °F /  2 °C 29.90 in /  1012.4 hPa Calm     97 % 0.00 in /  0 mm
03:45 36.3 °F /  2.4 °C 35.6 °F /  2 °C 29.89 in /  1012.1 hPa Calm     97 % 0.00 in /  0 mm
04:00 36.5 °F /  2.5 °C 35.8 °F /  2.1 °C 29.88 in /  1011.7 hPa Calm     97 % 0.00 in /  0 mm
04:15 36.3 °F /  2.4 °C 35.4 °F /  1.9 °C 29.88 in /  1011.7 hPa Calm     96 % 0.00 in /  0 mm
04:30 36.5 °F /  2.5 °C 35.4 °F /  1.9 °C 29.88 in /  1011.7 hPa Calm     96 % 0.00 in /  0 mm
04:45 36.5 °F /  2.5 °C 35.4 °F /  1.9 °C 29.87 in /  1011.4 hPa Calm     96 % 0.00 in /  0 mm
05:00 36.3 °F /  2.4 °C 35.4 °F /  1.9 °C 29.87 in /  1011.4 hPa Calm     96 % 0.00 in /  0 mm
05:15 36.3 °F /  2.4 °C 35.4 °F /  1.9 °C 29.86 in /  1011.1 hPa Calm     96 % 0.00 in /  0 mm
05:30 36.3 °F /  2.4 °C 35.4 °F /  1.9 °C 29.87 in /  1011.4 hPa Calm     96 % 0.00 in /  0 mm
05:45 36.3 °F /  2.4 °C 35.4 °F /  1.9 °C 29.87 in /  1011.4 hPa Calm     96 % 0.00 in /  0 mm
06:00 36.3 °F /  2.4 °C 35.1 °F /  1.7 °C 29.86 in /  1011.1 hPa Calm     95 % 0.00 in /  0 mm
06:15 36.3 °F /  2.4 °C 35.1 °F /  1.7 °C 29.88 in /  1011.7 hPa Calm     95 % 0.00 in /  0 mm
06:30 36.3 °F /  2.4 °C 35.4 °F /  1.9 °C 29.88 in /  1011.7 hPa Calm     96 % 0.00 in /  0 mm
06:45 36.3 °F /  2.4 °C 35.1 °F /  1.7 °C 29.87 in /  1011.4 hPa Calm     95 % 0.00 in /  0 mm
07:00 36.3 °F /  2.4 °C 35.1 °F /  1.7 °C 29.87 in /  1011.4 hPa Calm     95 % 0.00 in /  0 mm
07:15 36.1 °F /  2.3 °C 35.2 °F /  1.8 °C 29.87 in /  1011.4 hPa Calm     96 % 0.00 in /  0 mm
07:30 36.3 °F /  2.4 °C 35.2 °F /  1.8 °C 29.87 in /  1011.4 hPa Calm     96 % 0.00 in /  0 mm
07:45 36.3 °F /  2.4 °C 35.2 °F /  1.8 °C 29.87 in /  1011.4 hPa Calm     96 % 0.00 in /  0 mm
08:00 36.3 °F /  2.4 °C 35.4 °F /  1.9 °C 29.87 in /  1011.4 hPa Calm     96 % 0.00 in /  0 mm
08:15 36.3 °F /  2.4 °C 35.1 °F /  1.7 °C 29.87 in /  1011.4 hPa Calm     95 % 0.00 in /  0 mm
08:30 36.1 °F /  2.3 °C 34.9 °F /  1.6 °C 29.87 in /  1011.4 hPa Calm     95 % 0.00 in /  0 mm
08:45 36.1 °F /  2.3 °C 34.9 °F /  1.6 °C 29.87 in /  1011.4 hPa Calm     95 % 0.00 in /  0 mm
09:00 36.1 °F /  2.3 °C 34.9 °F /  1.6 °C 29.86 in /  1011.1 hPa Calm     95 % 0.00 in /  0 mm
09:15 36.1 °F /  2.3 °C 34.9 °F /  1.6 °C 29.87 in /  1011.4 hPa Calm     95 % 0.00 in /  0 mm
09:30 36.1 °F /  2.3 °C 34.9 °F /  1.6 °C 29.88 in /  1011.7 hPa Calm     95 % 0.00 in /  0 mm
09:45 36.1 °F /  2.3 °C 34.9 °F /  1.6 °C 29.88 in /  1011.7 hPa Calm     95 % 0.00 in /  0 mm
10:00 36.1 °F /  2.3 °C 34.9 °F /  1.6 °C 29.88 in /  1011.7 hPa Calm     95 % 0.00 in /  0 mm
10:15 36.3 °F /  2.4 °C 35.1 °F /  1.7 °C 29.88 in /  1011.7 hPa Calm     95 % 0.00 in /  0 mm
10:30 36.7 °F /  2.6 °C 35.4 °F /  1.9 °C 29.88 in /  1011.7 hPa Calm     95 % 0.00 in /  0 mm
10:45 37.0 °F /  2.8 °C 35.6 °F /  2 °C 29.88 in /  1011.7 hPa Calm     94 % 0.00 in /  0 mm
11:00 37.8 °F /  3.2 °C 36.1 °F /  2.3 °C 29.88 in /  1011.7 hPa Calm     94 % 0.00 in /  0 mm
11:15 38.1 °F /  3.4 °C 36.5 °F /  2.5 °C 29.88 in /  1011.7 hPa Calm     94 % 0.00 in /  0 mm
11:30 38.3 °F /  3.5 °C 36.5 °F /  2.5 °C 29.89 in /  1012.1 hPa Calm     93 % 0.00 in /  0 mm
11:45 38.5 °F /  3.6 °C 36.7 °F /  2.6 °C 29.88 in /  1011.7 hPa Calm     93 % 0.00 in /  0 mm
12:00 39.0 °F /  3.9 °C 37.2 °F /  2.9 °C 29.88 in /  1011.7 hPa Calm     93 % 0.00 in /  0 mm
12:15 39.2 °F /  4 °C 37.0 °F /  2.8 °C 29.88 in /  1011.7 hPa Calm     92 % 0.00 in /  0 mm
12:30 39.7 °F /  4.3 °C 37.6 °F /  3.1 °C 29.88 in /  1011.7 hPa Calm     92 % 0.00 in /  0 mm
12:45 40.5 °F /  4.7 °C 38.1 °F /  3.4 °C 29.89 in /  1012.1 hPa Calm     91 % 0.00 in /  0 mm
13:00 42.3 °F /  5.7 °C 38.8 °F /  3.8 °C 29.89 in /  1012.1 hPa Calm     88 % 0.00 in /  0 mm
13:15 43.0 °F /  6.1 °C 39.0 °F /  3.9 °C 29.89 in /  1012.1 hPa Calm     86 % 0.00 in /  0 mm
13:30 43.3 °F /  6.3 °C 39.0 °F /  3.9 °C 29.89 in /  1012.1 hPa Calm     85 % 0.00 in /  0 mm
13:45 43.3 °F /  6.3 °C 38.8 °F /  3.8 °C 29.89 in /  1012.1 hPa Calm     84 % 0.00 in /  0 mm
14:00 43.3 °F /  6.3 °C 38.8 °F /  3.8 °C 29.90 in /  1012.4 hPa Calm     84 % 0.00 in /  0 mm
14:15 43.2 °F /  6.2 °C 38.7 °F /  3.7 °C 29.90 in /  1012.4 hPa Calm     84 % 0.00 in /  0 mm
14:30 43.0 °F /  6.1 °C 38.5 °F /  3.6 °C 29.90 in /  1012.4 hPa Calm     84 % 0.00 in /  0 mm
14:45 43.0 °F /  6.1 °C 38.7 °F /  3.7 °C 29.91 in /  1012.8 hPa Calm     85 % 0.00 in /  0 mm
15:00 42.6 °F /  5.9 °C 38.5 °F /  3.6 °C 29.90 in /  1012.4 hPa Calm     85 % 0.00 in /  0 mm
15:15 42.6 °F /  5.9 °C 38.5 °F /  3.6 °C 29.91 in /  1012.8 hPa Calm     85 % 0.00 in /  0 mm
15:30 42.6 °F /  5.9 °C 38.5 °F /  3.6 °C 29.91 in /  1012.8 hPa Calm     85 % 0.00 in /  0 mm
15:45 43.0 °F /  6.1 °C 38.5 °F /  3.6 °C 29.91 in /  1012.8 hPa Calm     84 % 0.00 in /  0 mm
16:00 42.6 °F /  5.9 °C 38.1 °F /  3.4 °C 29.92 in /  1013.1 hPa Calm     84 % 0.00 in /  0 mm
16:15 42.4 °F /  5.8 °C 38.3 °F /  3.5 °C 29.92 in /  1013.1 hPa Calm     85 % 0.00 in /  0 mm
16:30 42.4 °F /  5.8 °C 38.3 °F /  3.5 °C 29.93 in /  1013.4 hPa Calm     85 % 0.00 in /  0 mm
16:45 42.3 °F /  5.7 °C 37.9 °F /  3.3 °C 29.94 in /  1013.8 hPa Calm     85 % 0.00 in /  0 mm
17:00 41.9 °F /  5.5 °C 37.9 °F /  3.3 °C 29.94 in /  1013.8 hPa Calm     86 % 0.00 in /  0 mm
17:15 41.4 °F /  5.2 °C 37.8 °F /  3.2 °C 29.94 in /  1013.8 hPa Calm     87 % 0.00 in /  0 mm
17:30 41.0 °F /  5 °C 37.8 °F /  3.2 °C 29.94 in /  1013.8 hPa Calm     88 % 0.00 in /  0 mm
17:45 41.0 °F /  5 °C 37.8 °F /  3.2 °C 29.94 in /  1013.8 hPa Calm     88 % 0.00 in /  0 mm
18:00 40.6 °F /  4.8 °C 37.8 °F /  3.2 °C 29.95 in /  1014.1 hPa Calm     89 % 0.00 in /  0 mm
18:15 40.8 °F /  4.9 °C 37.8 °F /  3.2 °C 29.95 in /  1014.1 hPa Calm     89 % 0.00 in /  0 mm
18:30 40.6 °F /  4.8 °C 37.8 °F /  3.2 °C 29.95 in /  1014.1 hPa Calm     89 % 0.00 in /  0 mm
18:45 40.5 °F /  4.7 °C 37.8 °F /  3.2 °C 29.96 in /  1014.4 hPa Calm     90 % 0.00 in /  0 mm
19:00 40.3 °F /  4.6 °C 37.6 °F /  3.1 °C 29.97 in /  1014.8 hPa Calm     90 % 0.00 in /  0 mm
19:15 40.1 °F /  4.5 °C 37.8 °F /  3.2 °C 29.97 in /  1014.8 hPa Calm     91 % 0.00 in /  0 mm
19:30 39.7 °F /  4.3 °C 37.4 °F /  3 °C 29.97 in /  1014.8 hPa Calm     91 % 0.00 in /  0 mm
19:45 39.6 °F /  4.2 °C 37.0 °F /  2.8 °C 29.98 in /  1015.1 hPa Calm     91 % 0.00 in /  0 mm
20:00 39.0 °F /  3.9 °C 36.9 °F /  2.7 °C 29.98 in /  1015.1 hPa Calm     92 % 0.00 in /  0 mm
20:15 38.8 °F /  3.8 °C 37.0 °F /  2.8 °C 29.98 in /  1015.1 hPa Calm     93 % 0.00 in /  0 mm
20:30 39.6 °F /  4.2 °C 37.6 °F /  3.1 °C 29.99 in /  1015.5 hPa Calm     93 % 0.00 in /  0 mm
20:45 39.7 °F /  4.3 °C 37.6 °F /  3.1 °C 29.99 in /  1015.5 hPa Calm     92 % 0.00 in /  0 mm
21:00 40.1 °F /  4.5 °C 37.9 °F /  3.3 °C 29.99 in /  1015.5 hPa Calm     92 % 0.00 in /  0 mm
21:15 40.3 °F /  4.6 °C 38.1 °F /  3.4 °C 29.99 in /  1015.5 hPa Calm     92 % 0.00 in /  0 mm
21:30 40.5 °F /  4.7 °C 38.1 °F /  3.4 °C 30.00 in /  1015.8 hPa Calm     91 % 0.00 in /  0 mm
21:45 40.3 °F /  4.6 °C 37.9 °F /  3.3 °C 30.00 in /  1015.8 hPa Calm     91 % 0.00 in /  0 mm
22:00 39.9 °F /  4.4 °C 37.6 °F /  3.1 °C 30.00 in /  1015.8 hPa Calm     91 % 0.00 in /  0 mm
22:15 39.4 °F /  4.1 °C 37.2 °F /  2.9 °C 30.00 in /  1015.8 hPa Calm     92 % 0.00 in /  0 mm
22:30 39.2 °F /  4 °C 37.0 °F /  2.8 °C 30.00 in /  1015.8 hPa Calm     92 % 0.00 in /  0 mm
22:45 38.8 °F /  3.8 °C 36.9 °F /  2.7 °C 30.00 in /  1015.8 hPa Calm     92 % 0.00 in /  0 mm
23:00 39.0 °F /  3.9 °C 37.0 °F /  2.8 °C 30.00 in /  1015.8 hPa Calm     92 % 0.00 in /  0 mm
23:15 38.8 °F /  3.8 °C 36.7 °F /  2.6 °C 30.01 in /  1016.1 hPa Calm     92 % 0.00 in /  0 mm
23:30 38.5 °F /  3.6 °C 36.7 °F /  2.6 °C 30.01 in /  1016.1 hPa Calm     93 % 0.00 in /  0 mm
23:45 38.7 °F /  3.7 °C 36.9 °F /  2.7 °C 30.02 in /  1016.5 hPa Calm     93 % 0.00 in /  0 mm
Esan sääasema
Terveisin Weather Underground - 2.75 mb

Alkuperäinen skripti  Jim McMurry - jmcmurry@mwt.net Sovitettu myös templatelle  Wim van der Kuil - Leuven-Template.eu

Laitteet joita käytämme:

Sääasema
Davis VP2

Sääasemaohjelma
Cumulus

Sääaseman tietokone
Asus EeePC

Palveluntarjoaja
Suncomet

Davis VP2

Cumulus

Asus EeePC

Suncomet